sensor_id;sensor_type;location;lat;lon;timestamp;P1;durP1;ratioP1;P2;durP2;ratioP2
47784;SDS011;35233;55.686;37.848;2024-01-16T00:01:37;6.28;;;4.70;;
47784;SDS011;35233;55.686;37.848;2024-01-16T00:04:02;6.47;;;5.03;;
47784;SDS011;35233;55.686;37.848;2024-01-16T00:06:28;6.25;;;4.97;;
47784;SDS011;35233;55.686;37.848;2024-01-16T00:08:54;6.78;;;4.70;;
47784;SDS011;35233;55.686;37.848;2024-01-16T00:11:19;6.35;;;4.72;;
47784;SDS011;35233;55.686;37.848;2024-01-16T00:13:45;5.78;;;4.50;;
47784;SDS011;35233;55.686;37.848;2024-01-16T00:16:10;5.90;;;4.43;;
47784;SDS011;35233;55.686;37.848;2024-01-16T00:18:36;7.05;;;4.90;;
47784;SDS011;35233;55.686;37.848;2024-01-16T00:21:02;5.55;;;4.47;;
47784;SDS011;35233;55.686;37.848;2024-01-16T00:23:28;5.70;;;4.20;;
47784;SDS011;35233;55.686;37.848;2024-01-16T00:25:53;6.05;;;4.75;;
47784;SDS011;35233;55.686;37.848;2024-01-16T00:28:19;6.45;;;4.65;;
47784;SDS011;35233;55.686;37.848;2024-01-16T00:30:45;6.20;;;4.32;;
47784;SDS011;35233;55.686;37.848;2024-01-16T00:33:10;6.22;;;4.40;;
47784;SDS011;35233;55.686;37.848;2024-01-16T00:35:37;6.05;;;4.80;;
47784;SDS011;35233;55.686;37.848;2024-01-16T00:38:03;6.38;;;4.55;;
47784;SDS011;35233;55.686;37.848;2024-01-16T00:40:29;5.50;;;4.38;;
47784;SDS011;35233;55.686;37.848;2024-01-16T00:42:54;6.10;;;4.55;;
47784;SDS011;35233;55.686;37.848;2024-01-16T00:45:20;6.78;;;4.72;;
47784;SDS011;35233;55.686;37.848;2024-01-16T00:47:46;5.90;;;4.68;;
47784;SDS011;35233;55.686;37.848;2024-01-16T00:50:12;5.88;;;4.18;;
47784;SDS011;35233;55.686;37.848;2024-01-16T00:52:37;7.60;;;4.70;;
47784;SDS011;35233;55.686;37.848;2024-01-16T00:55:03;5.88;;;4.18;;
47784;SDS011;35233;55.686;37.848;2024-01-16T00:57:29;5.60;;;4.13;;
47784;SDS011;35233;55.686;37.848;2024-01-16T00:59:55;5.65;;;4.30;;
47784;SDS011;35233;55.686;37.848;2024-01-16T01:02:21;5.00;;;3.85;;
47784;SDS011;35233;55.686;37.848;2024-01-16T01:04:46;7.68;;;4.22;;
47784;SDS011;35233;55.686;37.848;2024-01-16T01:07:13;5.85;;;4.03;;
47784;SDS011;35233;55.686;37.848;2024-01-16T01:09:39;6.13;;;4.32;;
47784;SDS011;35233;55.686;37.848;2024-01-16T01:12:05;6.05;;;4.07;;
47784;SDS011;35233;55.686;37.848;2024-01-16T01:14:31;5.75;;;4.35;;
47784;SDS011;35233;55.686;37.848;2024-01-16T01:16:57;5.10;;;4.07;;
47784;SDS011;35233;55.686;37.848;2024-01-16T01:19:22;5.63;;;4.25;;
47784;SDS011;35233;55.686;37.848;2024-01-16T01:21:48;5.32;;;4.20;;
47784;SDS011;35233;55.686;37.848;2024-01-16T01:24:14;6.22;;;4.30;;
47784;SDS011;35233;55.686;37.848;2024-01-16T01:26:43;5.20;;;4.18;;
47784;SDS011;35233;55.686;37.848;2024-01-16T01:29:09;5.10;;;4.05;;
47784;SDS011;35233;55.686;37.848;2024-01-16T01:31:35;6.32;;;4.05;;
47784;SDS011;35233;55.686;37.848;2024-01-16T01:34:00;5.35;;;4.00;;
47784;SDS011;35233;55.686;37.848;2024-01-16T01:36:26;5.40;;;3.83;;
47784;SDS011;35233;55.686;37.848;2024-01-16T01:38:52;5.30;;;4.05;;
47784;SDS011;35233;55.686;37.848;2024-01-16T01:41:18;5.63;;;4.00;;
47784;SDS011;35233;55.686;37.848;2024-01-16T01:43:44;4.93;;;3.80;;
47784;SDS011;35233;55.686;37.848;2024-01-16T01:48:40;5.55;;;4.00;;
47784;SDS011;35233;55.686;37.848;2024-01-16T01:51:07;5.75;;;3.90;;
47784;SDS011;35233;55.686;37.848;2024-01-16T01:53:34;4.82;;;3.90;;
47784;SDS011;35233;55.686;37.848;2024-01-16T01:56:05;4.85;;;3.80;;
47784;SDS011;35233;55.686;37.848;2024-01-16T01:58:34;4.50;;;3.50;;
47784;SDS011;35233;55.686;37.848;2024-01-16T02:01:01;5.43;;;4.00;;
47784;SDS011;35233;55.686;37.848;2024-01-16T02:03:29;6.20;;;3.90;;
47784;SDS011;35233;55.686;37.848;2024-01-16T02:05:58;5.43;;;3.53;;
47784;SDS011;35233;55.686;37.848;2024-01-16T02:08:24;5.03;;;3.83;;
47784;SDS011;35233;55.686;37.848;2024-01-16T02:10:50;5.82;;;3.67;;
47784;SDS011;35233;55.686;37.848;2024-01-16T02:13:16;6.68;;;3.95;;
47784;SDS011;35233;55.686;37.848;2024-01-16T02:15:46;5.00;;;3.38;;
47784;SDS011;35233;55.686;37.848;2024-01-16T02:18:11;4.35;;;3.53;;
47784;SDS011;35233;55.686;37.848;2024-01-16T02:20:37;5.43;;;4.10;;
47784;SDS011;35233;55.686;37.848;2024-01-16T02:23:03;5.82;;;3.67;;
47784;SDS011;35233;55.686;37.848;2024-01-16T02:25:29;5.03;;;3.88;;
47784;SDS011;35233;55.686;37.848;2024-01-16T02:27:55;5.60;;;4.00;;
47784;SDS011;35233;55.686;37.848;2024-01-16T02:30:21;5.20;;;3.65;;
47784;SDS011;35233;55.686;37.848;2024-01-16T02:32:47;7.15;;;4.28;;
47784;SDS011;35233;55.686;37.848;2024-01-16T02:35:12;4.57;;;3.60;;
47784;SDS011;35233;55.686;37.848;2024-01-16T02:37:38;5.82;;;3.97;;
47784;SDS011;35233;55.686;37.848;2024-01-16T02:40:04;6.05;;;4.18;;
47784;SDS011;35233;55.686;37.848;2024-01-16T02:42:34;5.28;;;3.72;;
47784;SDS011;35233;55.686;37.848;2024-01-16T02:45:00;4.70;;;3.78;;
47784;SDS011;35233;55.686;37.848;2024-01-16T02:47:25;5.18;;;3.83;;
47784;SDS011;35233;55.686;37.848;2024-01-16T02:49:51;6.03;;;3.83;;
47784;SDS011;35233;55.686;37.848;2024-01-16T02:52:18;5.50;;;3.80;;
47784;SDS011;35233;55.686;37.848;2024-01-16T02:54:43;4.65;;;3.50;;
47784;SDS011;35233;55.686;37.848;2024-01-16T02:57:09;7.18;;;4.30;;
47784;SDS011;35233;55.686;37.848;2024-01-16T02:59:35;4.80;;;3.60;;
47784;SDS011;35233;55.686;37.848;2024-01-16T03:02:00;5.63;;;3.67;;
47784;SDS011;35233;55.686;37.848;2024-01-16T03:04:26;5.25;;;4.10;;
47784;SDS011;35233;55.686;37.848;2024-01-16T03:06:52;5.55;;;3.97;;
47784;SDS011;35233;55.686;37.848;2024-01-16T03:09:17;4.80;;;3.58;;
47784;SDS011;35233;55.686;37.848;2024-01-16T03:11:43;4.55;;;3.40;;
47784;SDS011;35233;55.686;37.848;2024-01-16T03:14:09;5.57;;;3.90;;
47784;SDS011;35233;55.686;37.848;2024-01-16T03:16:34;6.53;;;4.00;;
47784;SDS011;35233;55.686;37.848;2024-01-16T03:19:00;4.93;;;3.90;;
47784;SDS011;35233;55.686;37.848;2024-01-16T03:21:26;5.10;;;3.83;;
47784;SDS011;35233;55.686;37.848;2024-01-16T03:23:51;5.30;;;4.00;;
47784;SDS011;35233;55.686;37.848;2024-01-16T03:26:17;5.10;;;3.65;;
47784;SDS011;35233;55.686;37.848;2024-01-16T03:28:43;6.15;;;4.10;;
47784;SDS011;35233;55.686;37.848;2024-01-16T03:31:08;5.40;;;3.97;;
47784;SDS011;35233;55.686;37.848;2024-01-16T03:33:34;5.53;;;3.83;;
47784;SDS011;35233;55.686;37.848;2024-01-16T03:36:00;5.38;;;3.90;;
47784;SDS011;35233;55.686;37.848;2024-01-16T03:38:26;4.78;;;3.90;;
47784;SDS011;35233;55.686;37.848;2024-01-16T03:40:51;5.40;;;3.88;;
47784;SDS011;35233;55.686;37.848;2024-01-16T03:43:18;4.93;;;3.50;;
47784;SDS011;35233;55.686;37.848;2024-01-16T03:45:43;5.25;;;3.90;;
47784;SDS011;35233;55.686;37.848;2024-01-16T03:48:09;5.55;;;4.13;;
47784;SDS011;35233;55.686;37.848;2024-01-16T03:50:35;5.05;;;3.72;;
47784;SDS011;35233;55.686;37.848;2024-01-16T03:53:01;5.18;;;3.78;;
47784;SDS011;35233;55.686;37.848;2024-01-16T03:55:29;5.28;;;4.03;;
47784;SDS011;35233;55.686;37.848;2024-01-16T03:57:55;5.90;;;3.80;;
47784;SDS011;35233;55.686;37.848;2024-01-16T04:00:21;4.95;;;3.90;;
47784;SDS011;35233;55.686;37.848;2024-01-16T04:02:47;5.57;;;4.30;;
47784;SDS011;35233;55.686;37.848;2024-01-16T04:05:12;5.63;;;4.15;;
47784;SDS011;35233;55.686;37.848;2024-01-16T04:07:38;5.97;;;3.92;;
47784;SDS011;35233;55.686;37.848;2024-01-16T04:10:05;5.15;;;3.95;;
47784;SDS011;35233;55.686;37.848;2024-01-16T04:12:31;6.72;;;3.80;;
47784;SDS011;35233;55.686;37.848;2024-01-16T04:14:57;5.78;;;4.10;;
47784;SDS011;35233;55.686;37.848;2024-01-16T04:17:22;5.57;;;4.25;;
47784;SDS011;35233;55.686;37.848;2024-01-16T04:19:48;5.93;;;4.20;;
47784;SDS011;35233;55.686;37.848;2024-01-16T04:22:14;7.40;;;4.50;;
47784;SDS011;35233;55.686;37.848;2024-01-16T04:24:39;5.55;;;4.10;;
47784;SDS011;35233;55.686;37.848;2024-01-16T04:27:05;5.95;;;4.25;;
47784;SDS011;35233;55.686;37.848;2024-01-16T04:29:30;5.50;;;3.95;;
47784;SDS011;35233;55.686;37.848;2024-01-16T04:31:56;6.13;;;4.03;;
47784;SDS011;35233;55.686;37.848;2024-01-16T04:34:22;5.88;;;4.10;;
47784;SDS011;35233;55.686;37.848;2024-01-16T04:36:48;5.22;;;3.80;;
47784;SDS011;35233;55.686;37.848;2024-01-16T04:39:14;5.57;;;4.22;;
47784;SDS011;35233;55.686;37.848;2024-01-16T04:41:39;6.72;;;4.32;;
47784;SDS011;35233;55.686;37.848;2024-01-16T04:44:05;5.13;;;4.13;;
47784;SDS011;35233;55.686;37.848;2024-01-16T04:46:30;5.97;;;4.47;;
47784;SDS011;35233;55.686;37.848;2024-01-16T04:48:56;6.00;;;4.45;;
47784;SDS011;35233;55.686;37.848;2024-01-16T04:51:22;5.80;;;4.20;;
47784;SDS011;35233;55.686;37.848;2024-01-16T04:53:47;6.22;;;4.22;;
47784;SDS011;35233;55.686;37.848;2024-01-16T04:56:13;5.25;;;3.90;;
47784;SDS011;35233;55.686;37.848;2024-01-16T04:58:39;6.18;;;4.22;;
47784;SDS011;35233;55.686;37.848;2024-01-16T05:01:04;5.38;;;4.10;;
47784;SDS011;35233;55.686;37.848;2024-01-16T05:03:30;7.10;;;4.32;;
47784;SDS011;35233;55.686;37.848;2024-01-16T05:05:55;5.78;;;4.25;;
47784;SDS011;35233;55.686;37.848;2024-01-16T05:08:22;6.78;;;4.45;;
47784;SDS011;35233;55.686;37.848;2024-01-16T05:10:47;6.72;;;4.60;;
47784;SDS011;35233;55.686;37.848;2024-01-16T05:13:13;7.90;;;4.20;;
47784;SDS011;35233;55.686;37.848;2024-01-16T05:15:40;5.50;;;4.13;;
47784;SDS011;35233;55.686;37.848;2024-01-16T05:18:05;6.38;;;4.60;;
47784;SDS011;35233;55.686;37.848;2024-01-16T05:20:31;8.52;;;4.53;;
47784;SDS011;35233;55.686;37.848;2024-01-16T05:22:57;8.27;;;5.13;;
47784;SDS011;35233;55.686;37.848;2024-01-16T05:25:22;5.95;;;4.45;;
47784;SDS011;35233;55.686;37.848;2024-01-16T05:27:48;8.25;;;5.07;;
47784;SDS011;35233;55.686;37.848;2024-01-16T05:30:14;6.20;;;5.10;;
47784;SDS011;35233;55.686;37.848;2024-01-16T05:32:40;7.65;;;4.80;;
47784;SDS011;35233;55.686;37.848;2024-01-16T05:35:06;7.18;;;4.88;;
47784;SDS011;35233;55.686;37.848;2024-01-16T05:37:32;6.60;;;4.95;;
47784;SDS011;35233;55.686;37.848;2024-01-16T05:39:58;6.57;;;5.10;;
47784;SDS011;35233;55.686;37.848;2024-01-16T05:42:24;6.57;;;5.00;;
47784;SDS011;35233;55.686;37.848;2024-01-16T05:44:49;8.02;;;5.57;;
47784;SDS011;35233;55.686;37.848;2024-01-16T05:47:15;6.70;;;5.00;;
47784;SDS011;35233;55.686;37.848;2024-01-16T05:49:40;6.88;;;5.20;;
47784;SDS011;35233;55.686;37.848;2024-01-16T05:52:07;7.40;;;5.65;;
47784;SDS011;35233;55.686;37.848;2024-01-16T05:54:33;7.68;;;5.22;;
47784;SDS011;35233;55.686;37.848;2024-01-16T05:56:59;8.50;;;5.05;;
47784;SDS011;35233;55.686;37.848;2024-01-16T05:59:24;8.18;;;4.95;;
47784;SDS011;35233;55.686;37.848;2024-01-16T06:01:50;7.00;;;5.32;;
47784;SDS011;35233;55.686;37.848;2024-01-16T06:04:16;9.50;;;5.50;;
47784;SDS011;35233;55.686;37.848;2024-01-16T06:06:41;7.95;;;5.47;;
47784;SDS011;35233;55.686;37.848;2024-01-16T06:09:10;7.53;;;5.40;;
47784;SDS011;35233;55.686;37.848;2024-01-16T06:11:39;6.50;;;5.00;;
47784;SDS011;35233;55.686;37.848;2024-01-16T06:14:06;10.10;;;6.03;;
47784;SDS011;35233;55.686;37.848;2024-01-16T06:16:32;6.70;;;5.15;;
47784;SDS011;35233;55.686;37.848;2024-01-16T06:18:58;7.13;;;4.80;;
47784;SDS011;35233;55.686;37.848;2024-01-16T06:21:24;6.75;;;5.18;;
47784;SDS011;35233;55.686;37.848;2024-01-16T06:23:49;10.52;;;5.25;;
47784;SDS011;35233;55.686;37.848;2024-01-16T06:26:15;7.65;;;5.50;;
47784;SDS011;35233;55.686;37.848;2024-01-16T06:28:41;8.98;;;5.38;;
47784;SDS011;35233;55.686;37.848;2024-01-16T06:31:08;8.80;;;5.13;;
47784;SDS011;35233;55.686;37.848;2024-01-16T06:33:34;9.00;;;5.22;;
47784;SDS011;35233;55.686;37.848;2024-01-16T06:36:00;7.35;;;5.30;;
47784;SDS011;35233;55.686;37.848;2024-01-16T06:38:29;7.20;;;5.45;;
47784;SDS011;35233;55.686;37.848;2024-01-16T06:40:56;8.27;;;4.82;;
47784;SDS011;35233;55.686;37.848;2024-01-16T06:43:22;7.28;;;5.20;;
47784;SDS011;35233;55.686;37.848;2024-01-16T06:45:47;9.10;;;4.95;;
47784;SDS011;35233;55.686;37.848;2024-01-16T06:48:13;8.60;;;4.95;;
47784;SDS011;35233;55.686;37.848;2024-01-16T06:50:39;7.47;;;5.28;;
47784;SDS011;35233;55.686;37.848;2024-01-16T06:53:04;6.72;;;5.20;;
47784;SDS011;35233;55.686;37.848;2024-01-16T06:55:30;7.05;;;5.13;;
47784;SDS011;35233;55.686;37.848;2024-01-16T06:57:55;8.18;;;4.97;;
47784;SDS011;35233;55.686;37.848;2024-01-16T07:00:21;7.07;;;5.25;;
47784;SDS011;35233;55.686;37.848;2024-01-16T07:02:51;6.63;;;4.85;;
47784;SDS011;35233;55.686;37.848;2024-01-16T07:05:17;7.10;;;5.18;;
47784;SDS011;35233;55.686;37.848;2024-01-16T07:07:42;6.88;;;5.13;;
47784;SDS011;35233;55.686;37.848;2024-01-16T07:10:08;6.80;;;5.07;;
47784;SDS011;35233;55.686;37.848;2024-01-16T07:12:38;6.57;;;5.07;;
47784;SDS011;35233;55.686;37.848;2024-01-16T07:15:05;7.03;;;5.07;;
47784;SDS011;35233;55.686;37.848;2024-01-16T07:17:31;6.28;;;4.90;;
47784;SDS011;35233;55.686;37.848;2024-01-16T07:19:57;9.90;;;6.22;;
47784;SDS011;35233;55.686;37.848;2024-01-16T07:22:23;7.22;;;5.10;;
47784;SDS011;35233;55.686;37.848;2024-01-16T07:24:49;7.00;;;5.00;;
47784;SDS011;35233;55.686;37.848;2024-01-16T07:27:15;7.28;;;5.20;;
47784;SDS011;35233;55.686;37.848;2024-01-16T07:29:40;7.43;;;4.93;;
47784;SDS011;35233;55.686;37.848;2024-01-16T07:32:06;6.97;;;4.97;;
47784;SDS011;35233;55.686;37.848;2024-01-16T07:34:32;7.05;;;5.20;;
47784;SDS011;35233;55.686;37.848;2024-01-16T07:36:58;7.38;;;5.38;;
47784;SDS011;35233;55.686;37.848;2024-01-16T07:39:23;8.15;;;5.57;;
47784;SDS011;35233;55.686;37.848;2024-01-16T07:41:49;7.85;;;5.47;;
47784;SDS011;35233;55.686;37.848;2024-01-16T07:44:15;8.20;;;5.25;;
47784;SDS011;35233;55.686;37.848;2024-01-16T07:46:40;7.78;;;5.57;;
47784;SDS011;35233;55.686;37.848;2024-01-16T07:49:06;7.85;;;5.28;;
47784;SDS011;35233;55.686;37.848;2024-01-16T07:51:32;8.10;;;5.65;;
47784;SDS011;35233;55.686;37.848;2024-01-16T07:54:07;7.25;;;5.28;;
47784;SDS011;35233;55.686;37.848;2024-01-16T07:56:35;6.47;;;5.07;;
47784;SDS011;35233;55.686;37.848;2024-01-16T07:59:02;7.07;;;5.38;;
47784;SDS011;35233;55.686;37.848;2024-01-16T08:01:28;8.73;;;5.75;;
47784;SDS011;35233;55.686;37.848;2024-01-16T08:03:54;6.50;;;4.57;;
47784;SDS011;35233;55.686;37.848;2024-01-16T08:06:20;7.85;;;5.28;;
47784;SDS011;35233;55.686;37.848;2024-01-16T08:08:47;7.97;;;5.10;;
47784;SDS011;35233;55.686;37.848;2024-01-16T08:11:13;6.97;;;4.88;;
47784;SDS011;35233;55.686;37.848;2024-01-16T08:13:39;6.95;;;5.20;;
47784;SDS011;35233;55.686;37.848;2024-01-16T08:16:05;6.72;;;5.28;;
47784;SDS011;35233;55.686;37.848;2024-01-16T08:18:31;6.68;;;5.07;;
47784;SDS011;35233;55.686;37.848;2024-01-16T08:20:57;10.52;;;5.25;;
47784;SDS011;35233;55.686;37.848;2024-01-16T08:23:22;7.90;;;5.28;;
47784;SDS011;35233;55.686;37.848;2024-01-16T08:25:48;6.88;;;5.00;;
47784;SDS011;35233;55.686;37.848;2024-01-16T08:28:14;6.88;;;5.32;;
47784;SDS011;35233;55.686;37.848;2024-01-16T08:30:40;6.70;;;5.05;;
47784;SDS011;35233;55.686;37.848;2024-01-16T08:33:06;6.88;;;5.40;;
47784;SDS011;35233;55.686;37.848;2024-01-16T08:35:32;6.03;;;4.93;;
47784;SDS011;35233;55.686;37.848;2024-01-16T08:37:58;7.40;;;5.30;;
47784;SDS011;35233;55.686;37.848;2024-01-16T08:40:24;6.78;;;4.95;;
47784;SDS011;35233;55.686;37.848;2024-01-16T08:42:50;6.40;;;4.90;;
47784;SDS011;35233;55.686;37.848;2024-01-16T08:45:20;6.78;;;4.88;;
47784;SDS011;35233;55.686;37.848;2024-01-16T08:47:46;8.48;;;5.20;;
47784;SDS011;35233;55.686;37.848;2024-01-16T08:50:12;6.88;;;4.78;;
47784;SDS011;35233;55.686;37.848;2024-01-16T08:52:37;6.85;;;4.78;;
47784;SDS011;35233;55.686;37.848;2024-01-16T08:55:03;6.80;;;4.78;;
47784;SDS011;35233;55.686;37.848;2024-01-16T08:57:29;8.40;;;4.80;;
47784;SDS011;35233;55.686;37.848;2024-01-16T08:59:55;6.82;;;5.10;;
47784;SDS011;35233;55.686;37.848;2024-01-16T09:02:21;7.80;;;5.20;;
47784;SDS011;35233;55.686;37.848;2024-01-16T09:04:47;10.07;;;5.15;;
47784;SDS011;35233;55.686;37.848;2024-01-16T09:07:15;7.03;;;4.65;;
47784;SDS011;35233;55.686;37.848;2024-01-16T09:09:42;7.65;;;5.00;;
47784;SDS011;35233;55.686;37.848;2024-01-16T09:12:10;8.68;;;5.32;;
47784;SDS011;35233;55.686;37.848;2024-01-16T09:14:36;6.65;;;4.63;;
47784;SDS011;35233;55.686;37.848;2024-01-16T09:17:01;8.90;;;5.07;;
47784;SDS011;35233;55.686;37.848;2024-01-16T09:19:28;8.15;;;4.63;;
47784;SDS011;35233;55.686;37.848;2024-01-16T09:21:54;5.75;;;4.30;;
47784;SDS011;35233;55.686;37.848;2024-01-16T09:24:20;7.75;;;4.68;;
47784;SDS011;35233;55.686;37.848;2024-01-16T09:26:46;6.22;;;4.90;;
47784;SDS011;35233;55.686;37.848;2024-01-16T09:29:11;7.32;;;4.65;;
47784;SDS011;35233;55.686;37.848;2024-01-16T09:31:37;7.07;;;5.45;;
47784;SDS011;35233;55.686;37.848;2024-01-16T09:34:03;8.57;;;5.88;;
47784;SDS011;35233;55.686;37.848;2024-01-16T09:36:29;9.95;;;6.82;;
47784;SDS011;35233;55.686;37.848;2024-01-16T09:38:55;8.13;;;6.28;;
47784;SDS011;35233;55.686;37.848;2024-01-16T09:41:21;9.80;;;6.70;;
47784;SDS011;35233;55.686;37.848;2024-01-16T09:43:47;8.93;;;6.85;;
47784;SDS011;35233;55.686;37.848;2024-01-16T09:46:14;11.05;;;7.47;;
47784;SDS011;35233;55.686;37.848;2024-01-16T09:48:41;9.10;;;7.00;;
47784;SDS011;35233;55.686;37.848;2024-01-16T09:51:10;9.35;;;7.32;;
47784;SDS011;35233;55.686;37.848;2024-01-16T09:53:40;12.43;;;7.45;;
47784;SDS011;35233;55.686;37.848;2024-01-16T09:56:07;10.65;;;7.57;;
47784;SDS011;35233;55.686;37.848;2024-01-16T09:58:39;9.98;;;7.65;;
47784;SDS011;35233;55.686;37.848;2024-01-16T10:01:05;10.02;;;7.40;;
47784;SDS011;35233;55.686;37.848;2024-01-16T10:03:31;10.02;;;7.53;;
47784;SDS011;35233;55.686;37.848;2024-01-16T10:06:09;11.50;;;7.80;;
47784;SDS011;35233;55.686;37.848;2024-01-16T10:08:35;12.25;;;8.50;;
47784;SDS011;35233;55.686;37.848;2024-01-16T10:11:02;11.15;;;7.25;;
47784;SDS011;35233;55.686;37.848;2024-01-16T10:13:28;9.82;;;7.60;;
47784;SDS011;35233;55.686;37.848;2024-01-16T10:15:54;11.38;;;7.70;;
47784;SDS011;35233;55.686;37.848;2024-01-16T10:18:24;12.50;;;7.32;;
47784;SDS011;35233;55.686;37.848;2024-01-16T10:20:51;11.43;;;7.90;;
47784;SDS011;35233;55.686;37.848;2024-01-16T10:23:25;10.70;;;7.45;;
47784;SDS011;35233;55.686;37.848;2024-01-16T10:28:35;10.43;;;7.90;;
47784;SDS011;35233;55.686;37.848;2024-01-16T10:31:06;10.45;;;7.65;;
47784;SDS011;35233;55.686;37.848;2024-01-16T10:33:42;11.05;;;7.93;;
47784;SDS011;35233;55.686;37.848;2024-01-16T10:36:23;10.80;;;7.85;;
47784;SDS011;35233;55.686;37.848;2024-01-16T10:38:50;10.25;;;7.57;;
47784;SDS011;35233;55.686;37.848;2024-01-16T10:41:22;12.20;;;8.00;;
47784;SDS011;35233;55.686;37.848;2024-01-16T10:44:04;11.15;;;7.75;;
47784;SDS011;35233;55.686;37.848;2024-01-16T10:46:34;10.10;;;7.07;;
47784;SDS011;35233;55.686;37.848;2024-01-16T10:49:03;11.43;;;8.63;;
47784;SDS011;35233;55.686;37.848;2024-01-16T10:51:30;9.18;;;7.60;;
47784;SDS011;35233;55.686;37.848;2024-01-16T10:54:03;9.55;;;7.55;;
47784;SDS011;35233;55.686;37.848;2024-01-16T10:56:31;9.43;;;7.05;;
47784;SDS011;35233;55.686;37.848;2024-01-16T10:59:03;10.10;;;7.65;;
47784;SDS011;35233;55.686;37.848;2024-01-16T11:01:36;11.00;;;8.10;;
47784;SDS011;35233;55.686;37.848;2024-01-16T11:04:03;10.88;;;8.05;;
47784;SDS011;35233;55.686;37.848;2024-01-16T11:06:30;10.65;;;8.00;;
47784;SDS011;35233;55.686;37.848;2024-01-16T11:09:31;10.07;;;7.53;;
47784;SDS011;35233;55.686;37.848;2024-01-16T11:11:57;10.45;;;7.75;;
47784;SDS011;35233;55.686;37.848;2024-01-16T11:14:23;10.38;;;7.57;;
47784;SDS011;35233;55.686;37.848;2024-01-16T11:16:51;10.68;;;8.05;;
47784;SDS011;35233;55.686;37.848;2024-01-16T11:19:17;11.55;;;7.47;;
47784;SDS011;35233;55.686;37.848;2024-01-16T11:21:44;9.52;;;7.40;;
47784;SDS011;35233;55.686;37.848;2024-01-16T11:24:12;11.52;;;7.90;;
47784;SDS011;35233;55.686;37.848;2024-01-16T11:26:41;12.90;;;7.72;;
47784;SDS011;35233;55.686;37.848;2024-01-16T11:31:54;9.43;;;7.35;;
47784;SDS011;35233;55.686;37.848;2024-01-16T11:34:54;9.57;;;7.93;;
47784;SDS011;35233;55.686;37.848;2024-01-16T11:37:24;10.07;;;7.38;;
47784;SDS011;35233;55.686;37.848;2024-01-16T11:40:06;10.93;;;7.60;;
47784;SDS011;35233;55.686;37.848;2024-01-16T11:42:46;10.00;;;7.55;;
47784;SDS011;35233;55.686;37.848;2024-01-16T11:48:12;10.00;;;7.53;;
47784;SDS011;35233;55.686;37.848;2024-01-16T11:50:39;10.98;;;7.93;;
47784;SDS011;35233;55.686;37.848;2024-01-16T11:53:05;10.98;;;8.25;;
47784;SDS011;35233;55.686;37.848;2024-01-16T11:55:35;10.35;;;8.02;;
47784;SDS011;35233;55.686;37.848;2024-01-16T12:00:40;10.65;;;8.02;;
47784;SDS011;35233;55.686;37.848;2024-01-16T12:03:07;10.40;;;7.40;;
47784;SDS011;35233;55.686;37.848;2024-01-16T12:05:34;10.88;;;8.10;;
47784;SDS011;35233;55.686;37.848;2024-01-16T12:07:59;9.60;;;7.20;;
47784;SDS011;35233;55.686;37.848;2024-01-16T12:10:28;10.18;;;7.32;;
47784;SDS011;35233;55.686;37.848;2024-01-16T12:13:00;11.45;;;7.45;;
47784;SDS011;35233;55.686;37.848;2024-01-16T12:15:27;10.80;;;7.57;;
47784;SDS011;35233;55.686;37.848;2024-01-16T12:17:53;10.65;;;7.72;;
47784;SDS011;35233;55.686;37.848;2024-01-16T12:20:20;10.13;;;7.65;;
47784;SDS011;35233;55.686;37.848;2024-01-16T12:22:55;9.73;;;7.38;;
47784;SDS011;35233;55.686;37.848;2024-01-16T12:25:32;9.53;;;7.43;;
47784;SDS011;35233;55.686;37.848;2024-01-16T12:27:59;10.68;;;7.40;;
47784;SDS011;35233;55.686;37.848;2024-01-16T12:30:26;11.07;;;8.00;;
47784;SDS011;35233;55.686;37.848;2024-01-16T12:36:00;12.98;;;7.97;;
47784;SDS011;35233;55.686;37.848;2024-01-16T12:38:29;9.70;;;7.18;;
47784;SDS011;35233;55.686;37.848;2024-01-16T12:40:55;9.10;;;7.05;;
47784;SDS011;35233;55.686;37.848;2024-01-16T12:43:21;10.63;;;7.15;;
47784;SDS011;35233;55.686;37.848;2024-01-16T12:45:46;10.20;;;7.00;;
47784;SDS011;35233;55.686;37.848;2024-01-16T12:48:24;12.52;;;7.30;;
47784;SDS011;35233;55.686;37.848;2024-01-16T12:50:51;9.48;;;7.38;;
47784;SDS011;35233;55.686;37.848;2024-01-16T12:53:16;9.15;;;6.82;;
47784;SDS011;35233;55.686;37.848;2024-01-16T12:55:50;10.20;;;7.43;;
47784;SDS011;35233;55.686;37.848;2024-01-16T12:58:36;12.02;;;7.88;;
47784;SDS011;35233;55.686;37.848;2024-01-16T13:01:21;12.13;;;7.57;;
47784;SDS011;35233;55.686;37.848;2024-01-16T13:03:52;11.00;;;7.47;;
47784;SDS011;35233;55.686;37.848;2024-01-16T13:06:18;9.68;;;7.22;;
47784;SDS011;35233;55.686;37.848;2024-01-16T13:08:48;9.32;;;7.60;;
47784;SDS011;35233;55.686;37.848;2024-01-16T13:11:15;9.70;;;7.10;;
47784;SDS011;35233;55.686;37.848;2024-01-16T13:13:45;10.35;;;7.50;;
47784;SDS011;35233;55.686;37.848;2024-01-16T13:16:12;10.13;;;7.47;;
47784;SDS011;35233;55.686;37.848;2024-01-16T13:18:39;9.90;;;7.63;;
47784;SDS011;35233;55.686;37.848;2024-01-16T13:21:04;11.25;;;7.53;;
47784;SDS011;35233;55.686;37.848;2024-01-16T13:23:30;10.57;;;7.90;;
47784;SDS011;35233;55.686;37.848;2024-01-16T13:25:56;9.95;;;7.68;;
47784;SDS011;35233;55.686;37.848;2024-01-16T13:28:25;9.25;;;7.60;;
47784;SDS011;35233;55.686;37.848;2024-01-16T13:30:52;11.57;;;7.60;;
47784;SDS011;35233;55.686;37.848;2024-01-16T13:33:18;10.13;;;7.60;;
47784;SDS011;35233;55.686;37.848;2024-01-16T13:35:44;13.75;;;7.80;;
47784;SDS011;35233;55.686;37.848;2024-01-16T13:38:14;9.43;;;7.18;;
47784;SDS011;35233;55.686;37.848;2024-01-16T13:40:41;11.52;;;8.00;;
47784;SDS011;35233;55.686;37.848;2024-01-16T13:43:07;12.20;;;7.65;;
47784;SDS011;35233;55.686;37.848;2024-01-16T13:45:33;10.52;;;7.70;;
47784;SDS011;35233;55.686;37.848;2024-01-16T13:48:03;11.35;;;7.45;;
47784;SDS011;35233;55.686;37.848;2024-01-16T13:50:30;11.52;;;7.70;;
47784;SDS011;35233;55.686;37.848;2024-01-16T13:52:57;10.00;;;6.95;;
47784;SDS011;35233;55.686;37.848;2024-01-16T13:55:22;10.80;;;7.10;;
47784;SDS011;35233;55.686;37.848;2024-01-16T13:57:48;11.57;;;7.68;;
47784;SDS011;35233;55.686;37.848;2024-01-16T14:00:14;10.15;;;7.07;;
47784;SDS011;35233;55.686;37.848;2024-01-16T14:02:42;8.52;;;6.80;;
47784;SDS011;35233;55.686;37.848;2024-01-16T14:05:09;9.68;;;7.38;;
47784;SDS011;35233;55.686;37.848;2024-01-16T14:07:39;10.45;;;7.03;;
47784;SDS011;35233;55.686;37.848;2024-01-16T14:10:07;10.27;;;7.05;;
47784;SDS011;35233;55.686;37.848;2024-01-16T14:12:40;9.75;;;7.28;;
47784;SDS011;35233;55.686;37.848;2024-01-16T14:15:13;10.15;;;7.18;;
47784;SDS011;35233;55.686;37.848;2024-01-16T14:17:48;10.13;;;7.50;;
47784;SDS011;35233;55.686;37.848;2024-01-16T14:20:16;9.23;;;7.30;;
47784;SDS011;35233;55.686;37.848;2024-01-16T14:22:43;10.30;;;7.53;;
47784;SDS011;35233;55.686;37.848;2024-01-16T14:25:09;10.68;;;7.97;;
47784;SDS011;35233;55.686;37.848;2024-01-16T14:27:37;12.30;;;8.52;;
47784;SDS011;35233;55.686;37.848;2024-01-16T14:30:07;10.35;;;7.50;;
47784;SDS011;35233;55.686;37.848;2024-01-16T14:32:44;11.38;;;8.00;;
47784;SDS011;35233;55.686;37.848;2024-01-16T14:37:38;10.48;;;7.70;;
47784;SDS011;35233;55.686;37.848;2024-01-16T14:40:05;10.73;;;7.95;;
47784;SDS011;35233;55.686;37.848;2024-01-16T14:42:50;10.77;;;8.45;;
47784;SDS011;35233;55.686;37.848;2024-01-16T14:45:18;11.10;;;7.47;;
47784;SDS011;35233;55.686;37.848;2024-01-16T14:47:48;11.60;;;7.88;;
47784;SDS011;35233;55.686;37.848;2024-01-16T14:50:15;11.68;;;8.07;;